createdAt,value
2017-04-16T00:00:04.678Z,48.98
2017-04-16T00:01:03.810Z,50.70
2017-04-16T00:02:02.727Z,50.70
2017-04-16T00:03:02.444Z,49.45
2017-04-16T00:04:01.406Z,47.33
2017-04-16T00:05:00.684Z,49.03
2017-04-16T00:06:00.044Z,46.92
2017-04-16T00:06:58.979Z,40.98
2017-04-16T00:07:57.907Z,35.80
2017-04-16T00:08:56.825Z,35.83
2017-04-16T00:09:55.816Z,33.87
2017-04-16T00:10:55.491Z,29.75
2017-04-16T00:11:54.415Z,28.13
2017-04-16T00:12:53.347Z,27.73
2017-04-16T00:13:52.297Z,26.05
2017-04-16T00:14:51.255Z,28.10
2017-04-16T00:15:50.222Z,24.70
2017-04-16T00:16:49.152Z,25.90
2017-04-16T00:17:48.772Z,25.70
2017-04-16T00:18:47.686Z,28.12
2017-04-16T00:19:47.385Z,27.42
2017-04-16T00:20:47.056Z,25.92
2017-04-16T00:21:46.016Z,30.12
2017-04-16T00:22:45.004Z,27.58
2017-04-16T00:23:43.904Z,26.22
2017-04-16T00:24:42.828Z,28.13
2017-04-16T00:25:41.759Z,30.03
2017-04-16T00:26:40.683Z,28.57
2017-04-16T00:27:39.616Z,30.75
2017-04-16T00:28:38.552Z,31.85
2017-04-16T00:29:37.479Z,28.10
2017-04-16T00:30:36.391Z,27.03
2017-04-16T00:31:36.075Z,28.28
2017-04-16T00:32:35.356Z,29.62
2017-04-16T00:33:34.388Z,27.28
2017-04-16T00:34:33.324Z,27.98
2017-04-16T00:35:32.243Z,29.05
2017-04-16T00:36:31.255Z,28.80
2017-04-16T00:37:30.203Z,29.30
2017-04-16T00:38:29.163Z,29.05
2017-04-16T00:39:28.887Z,28.10
2017-04-16T00:40:27.795Z,27.58
2017-04-16T00:41:26.723Z,28.43
2017-04-16T00:42:25.623Z,28.30
2017-04-16T00:43:24.565Z,29.43
2017-04-16T00:44:23.468Z,31.15
2017-04-16T00:45:22.423Z,31.22
2017-04-16T00:46:21.345Z,32.48
2017-04-16T00:47:21.067Z,33.02
2017-04-16T00:48:20.007Z,36.50
2017-04-16T00:49:18.920Z,29.73
2017-04-16T00:50:17.963Z,31.85
2017-04-16T00:51:17.242Z,33.73
2017-04-16T00:52:16.153Z,34.98
2017-04-16T00:53:15.079Z,27.92
2017-04-16T00:54:14.037Z,28.42
2017-04-16T00:55:12.975Z,25.38
2017-04-16T00:56:11.949Z,26.18
2017-04-16T00:57:10.886Z,30.40
2017-04-16T00:58:09.800Z,28.87
2017-04-16T00:59:08.724Z,28.13
2017-04-16T01:00:08.403Z,28.38
2017-04-16T01:01:12.900Z,31.22
2017-04-16T01:02:43.876Z,25.98
2017-04-16T01:03:42.792Z,28.18
2017-04-16T01:04:41.710Z,30.80
2017-04-16T01:05:40.636Z,23.82
2017-04-16T01:06:39.686Z,23.20
2017-04-16T01:07:38.636Z,24.30
2017-04-16T01:08:37.551Z,25.97
2017-04-16T01:09:36.507Z,26.10
2017-04-16T01:10:35.395Z,23.75
2017-04-16T01:11:34.324Z,24.55
2017-04-16T01:12:33.278Z,27.00
2017-04-16T01:13:32.953Z,24.95
2017-04-16T01:14:31.913Z,22.58
2017-04-16T01:15:30.820Z,23.00
2017-04-16T01:16:29.752Z,22.25
2017-04-16T01:17:28.676Z,20.30
2017-04-16T01:18:27.578Z,18.53
2017-04-16T01:19:26.520Z,17.57
2017-04-16T01:20:25.455Z,19.18
2017-04-16T01:21:25.320Z,21.70
2017-04-16T01:22:24.304Z,15.38
2017-04-16T01:23:23.231Z,17.35
2017-04-16T01:24:22.138Z,15.02
2017-04-16T01:25:21.029Z,16.05
2017-04-16T01:26:20.154Z,17.57
2017-04-16T01:27:19.065Z,19.60
2017-04-16T01:28:17.982Z,17.93
2017-04-16T01:29:16.918Z,17.88
2017-04-16T01:30:15.904Z,19.72
2017-04-16T01:31:14.822Z,15.30
2017-04-16T01:32:13.763Z,15.15
2017-04-16T01:33:12.713Z,15.17
2017-04-16T01:34:11.627Z,16.85
2017-04-16T01:35:10.546Z,13.02
2017-04-16T01:36:09.443Z,16.03
2017-04-16T01:37:08.332Z,12.95
2017-04-16T01:38:07.383Z,16.38
2017-04-16T01:39:06.303Z,12.28
2017-04-16T01:40:05.202Z,14.98
2017-04-16T01:41:04.132Z,12.33
2017-04-16T01:42:03.059Z,15.10
2017-04-16T01:43:02.760Z,11.30
2017-04-16T01:44:01.680Z,18.25
2017-04-16T01:45:00.583Z,11.92
2017-04-16T01:45:59.511Z,12.42
2017-04-16T01:46:59.164Z,10.97
2017-04-16T01:47:58.083Z,10.05
2017-04-16T01:48:57.762Z,7.60
2017-04-16T01:49:56.693Z,9.60
2017-04-16T01:50:55.635Z,9.32
2017-04-16T01:51:55.412Z,7.73
2017-04-16T01:52:54.308Z,9.30
2017-04-16T01:53:53.226Z,11.93
2017-04-16T01:54:52.148Z,8.52
2017-04-16T01:55:51.083Z,8.00
2017-04-16T01:56:50.009Z,10.45
2017-04-16T01:57:48.980Z,7.88
2017-04-16T01:58:47.907Z,10.70
2017-04-16T01:59:47.576Z,9.63
2017-04-16T02:00:46.511Z,9.07
2017-04-16T02:01:45.415Z,8.05
2017-04-16T02:02:44.319Z,6.40
2017-04-16T02:03:43.224Z,6.42
2017-04-16T02:04:42.117Z,6.78
2017-04-16T02:05:41.018Z,4.42
2017-04-16T02:06:39.935Z,4.27
2017-04-16T02:07:38.906Z,7.13
2017-04-16T02:08:37.853Z,6.63
2017-04-16T02:09:36.763Z,6.03
2017-04-16T02:10:35.659Z,8.60
2017-04-16T02:11:34.575Z,4.73
2017-04-16T02:12:33.516Z,7.03
2017-04-16T02:13:32.468Z,6.52
2017-04-16T02:14:31.400Z,5.03
2017-04-16T02:15:30.348Z,5.97
2017-04-16T02:16:29.275Z,6.95
2017-04-16T02:17:28.189Z,7.27
2017-04-16T02:18:27.087Z,6.00
2017-04-16T02:19:26.035Z,8.57
2017-04-16T02:20:25.672Z,5.63
2017-04-16T02:21:24.579Z,5.60
2017-04-16T02:22:23.474Z,7.77
2017-04-16T02:23:22.396Z,6.78
2017-04-16T02:24:21.307Z,6.12
2017-04-16T02:25:20.220Z,4.72
2017-04-16T02:26:19.505Z,5.93
2017-04-16T02:27:18.472Z,7.47
2017-04-16T02:28:17.366Z,9.00
2017-04-16T02:29:16.271Z,7.67
2017-04-16T02:30:15.915Z,4.87
2017-04-16T02:31:14.838Z,6.93
2017-04-16T02:33:25.103Z,5.38
2017-04-16T02:34:24.759Z,5.90
2017-04-16T02:35:23.687Z,5.93
2017-04-16T02:36:22.656Z,6.22
2017-04-16T02:37:21.592Z,5.67
2017-04-16T02:38:20.520Z,8.13
2017-04-16T02:39:19.440Z,5.73
2017-04-16T02:40:18.344Z,3.92
2017-04-16T02:41:17.260Z,6.58
2017-04-16T02:42:16.180Z,6.57
2017-04-16T02:43:15.093Z,5.15
2017-04-16T02:44:13.992Z,8.60
2017-04-16T02:45:12.887Z,5.22
2017-04-16T02:46:12.591Z,5.05
2017-04-16T02:47:11.503Z,6.30
2017-04-16T02:48:10.431Z,6.12
2017-04-16T02:49:09.324Z,5.77
2017-04-16T02:50:08.239Z,4.50
2017-04-16T02:51:07.185Z,5.05
2017-04-16T02:52:06.827Z,4.10
2017-04-16T02:53:05.766Z,5.15
2017-04-16T02:54:04.677Z,7.22
2017-04-16T02:55:03.575Z,4.38
2017-04-16T02:56:02.468Z,3.78
2017-04-16T02:57:01.370Z,5.43
2017-04-16T02:58:00.320Z,6.13
2017-04-16T02:58:59.216Z,3.82
2017-04-16T02:59:58.137Z,4.58
2017-04-16T03:00:57.039Z,6.47
2017-04-16T03:01:55.951Z,3.83
2017-04-16T03:02:54.833Z,5.82
2017-04-16T03:03:53.736Z,6.08
2017-04-16T03:04:52.647Z,5.27
2017-04-16T03:05:52.315Z,4.00
2017-04-16T03:06:51.223Z,4.95
2017-04-16T03:07:50.899Z,4.38
2017-04-16T03:08:49.799Z,6.72
2017-04-16T03:09:48.688Z,4.20
2017-04-16T03:10:48.328Z,3.90
2017-04-16T03:11:47.236Z,4.15
2017-04-16T03:12:46.146Z,7.02
2017-04-16T03:13:45.789Z,4.32
2017-04-16T03:14:44.725Z,5.30
2017-04-16T03:15:44.361Z,6.82
2017-04-16T03:16:43.260Z,5.43
2017-04-16T03:17:42.216Z,6.92
2017-04-16T03:18:41.143Z,4.98
2017-04-16T03:19:40.069Z,6.25
2017-04-16T03:20:38.981Z,5.60
2017-04-16T03:21:37.883Z,2.73
2017-04-16T03:22:36.787Z,5.27
2017-04-16T03:23:35.738Z,4.10
2017-04-16T03:24:34.675Z,6.05
2017-04-16T03:25:33.569Z,7.22
2017-04-16T03:26:32.508Z,4.00
2017-04-16T03:27:32.163Z,5.18
2017-04-16T03:28:31.058Z,5.40
2017-04-16T03:29:29.979Z,7.77
2017-04-16T03:30:28.863Z,6.10
2017-04-16T03:31:27.775Z,8.65
2017-04-16T03:32:26.692Z,7.70
2017-04-16T03:33:25.939Z,8.20
2017-04-16T03:34:25.028Z,4.50
2017-04-16T03:35:23.951Z,7.15
2017-04-16T03:36:22.955Z,5.60
2017-04-16T03:37:22.611Z,4.70
2017-04-16T03:38:21.519Z,4.75
2017-04-16T03:39:20.439Z,8.18
2017-04-16T03:40:19.323Z,5.08
2017-04-16T03:41:18.260Z,5.30
2017-04-16T03:42:17.147Z,4.28
2017-04-16T03:43:16.780Z,4.23
2017-04-16T03:44:15.676Z,5.57
2017-04-16T03:45:14.580Z,5.25
2017-04-16T03:46:13.497Z,6.00
2017-04-16T03:47:13.160Z,2.58
2017-04-16T03:48:12.064Z,6.08
2017-04-16T03:49:10.971Z,5.58
2017-04-16T03:50:09.871Z,6.30
2017-04-16T03:51:08.763Z,4.10
2017-04-16T03:52:07.691Z,5.40
2017-04-16T03:53:06.647Z,5.83
2017-04-16T03:54:05.556Z,3.20
2017-04-16T03:55:04.455Z,5.68
2017-04-16T03:56:03.359Z,4.65
2017-04-16T03:57:02.267Z,5.82
2017-04-16T03:58:01.148Z,6.62
2017-04-16T03:59:00.057Z,5.43
2017-04-16T03:59:59.689Z,6.77
2017-04-16T04:00:58.576Z,4.65
2017-04-16T04:01:57.491Z,5.02
2017-04-16T04:02:56.402Z,7.95
2017-04-16T04:03:56.036Z,4.85
2017-04-16T04:04:55.156Z,4.95
2017-04-16T04:05:54.082Z,4.45
2017-04-16T04:06:52.995Z,5.05
2017-04-16T04:07:51.867Z,5.73
2017-04-16T04:08:50.753Z,4.58
2017-04-16T04:09:49.692Z,7.40
2017-04-16T04:10:49.335Z,6.97
2017-04-16T04:11:48.915Z,5.68
2017-04-16T04:12:47.815Z,3.38
2017-04-16T04:13:46.717Z,7.15
2017-04-16T04:14:45.627Z,5.07
2017-04-16T04:15:45.267Z,5.33
2017-04-16T04:16:48.559Z,7.63
2017-04-16T04:17:47.479Z,4.90
2017-04-16T04:18:47.130Z,7.98
2017-04-16T04:19:46.063Z,5.88
2017-04-16T04:20:45.743Z,4.08
2017-04-16T04:21:44.648Z,6.83
2017-04-16T04:22:44.696Z,7.58
2017-04-16T04:23:43.607Z,5.55
2017-04-16T04:24:42.510Z,5.60
2017-04-16T04:25:41.452Z,4.92
2017-04-16T04:26:40.374Z,8.20
2017-04-16T04:27:39.295Z,7.72
2017-04-16T04:28:38.218Z,6.42
2017-04-16T04:29:37.145Z,6.40
2017-04-16T04:30:36.052Z,6.13
2017-04-16T04:31:34.960Z,5.27
2017-04-16T04:32:33.859Z,6.62
2017-04-16T04:33:33.557Z,9.20
2017-04-16T04:34:33.244Z,7.30
2017-04-16T04:35:32.164Z,11.32
2017-04-16T04:36:31.072Z,4.88
2017-04-16T04:37:29.984Z,6.42
2017-04-16T04:38:28.876Z,9.80
2017-04-16T04:39:28.528Z,6.42
2017-04-16T04:40:27.431Z,6.10
2017-04-16T04:41:26.335Z,6.62
2017-04-16T04:42:25.235Z,5.42
2017-04-16T04:43:24.144Z,5.57
2017-04-16T04:44:23.125Z,7.12
2017-04-16T04:45:22.040Z,7.17
2017-04-16T04:46:20.999Z,4.65
2017-04-16T04:47:19.883Z,4.87
2017-04-16T04:48:18.779Z,7.35
2017-04-16T04:49:17.696Z,5.63
2017-04-16T04:50:16.615Z,9.53
2017-04-16T04:51:15.504Z,7.28
2017-04-16T04:52:14.438Z,6.77
2017-04-16T04:53:13.356Z,7.30
2017-04-16T04:54:12.244Z,4.10
2017-04-16T04:55:11.140Z,6.43
2017-04-16T04:56:10.051Z,7.83
2017-04-16T04:57:08.950Z,7.13
2017-04-16T04:58:07.876Z,6.12
2017-04-16T04:59:06.768Z,7.32
2017-04-16T05:00:05.676Z,4.32
2017-04-16T05:01:05.335Z,5.30
2017-04-16T05:02:04.275Z,4.48
2017-04-16T05:03:03.192Z,4.60
2017-04-16T05:04:02.112Z,6.28
2017-04-16T05:05:01.743Z,5.15
2017-04-16T05:06:00.641Z,4.22
2017-04-16T05:06:59.536Z,5.57
2017-04-16T05:07:58.417Z,6.40
2017-04-16T05:08:57.302Z,5.47
2017-04-16T05:09:56.213Z,4.05
2017-04-16T05:10:55.173Z,3.60
2017-04-16T05:11:54.083Z,6.00
2017-04-16T05:12:53.731Z,7.48
2017-04-16T05:13:52.639Z,5.80
2017-04-16T05:14:51.528Z,6.92
2017-04-16T05:15:50.491Z,5.55
2017-04-16T05:16:49.379Z,5.50
2017-04-16T05:17:48.277Z,5.48
2017-04-16T05:18:47.188Z,4.38
2017-04-16T05:19:46.138Z,6.72
2017-04-16T05:20:45.069Z,4.82
2017-04-16T05:21:44.000Z,4.50
2017-04-16T05:22:43.795Z,6.30
2017-04-16T05:23:42.727Z,7.98
2017-04-16T05:24:41.619Z,5.52
2017-04-16T05:25:40.572Z,5.95
2017-04-16T05:26:39.511Z,6.92
2017-04-16T05:27:38.442Z,3.48
2017-04-16T05:28:37.347Z,5.10
2017-04-16T05:29:36.255Z,5.72
2017-04-16T05:30:35.153Z,4.58
2017-04-16T05:31:34.792Z,3.43
2017-04-16T05:32:33.711Z,3.82
2017-04-16T05:33:32.643Z,5.03
2017-04-16T05:34:31.556Z,4.45
2017-04-16T05:35:30.507Z,4.72
2017-04-16T05:36:29.440Z,3.93
2017-04-16T05:37:28.344Z,4.95
2017-04-16T05:38:27.239Z,5.07
2017-04-16T05:39:26.208Z,5.37
2017-04-16T05:40:25.867Z,4.33
2017-04-16T05:41:24.764Z,4.10
2017-04-16T05:42:23.698Z,7.32
2017-04-16T05:43:22.624Z,5.93
2017-04-16T05:44:21.555Z,5.33
2017-04-16T05:45:20.464Z,3.77
2017-04-16T05:46:19.369Z,5.00
2017-04-16T05:47:18.715Z,5.77
2017-04-16T05:48:17.623Z,4.73
2017-04-16T05:49:16.529Z,3.38
2017-04-16T05:50:15.408Z,2.08
2017-04-16T05:51:14.320Z,3.25
2017-04-16T05:52:13.230Z,3.85
2017-04-16T05:53:12.131Z,3.22
2017-04-16T05:54:11.036Z,3.53
2017-04-16T05:55:10.700Z,3.20
2017-04-16T05:56:09.627Z,3.55
2017-04-16T05:57:09.280Z,3.42
2017-04-16T05:58:08.195Z,3.27
2017-04-16T05:59:07.846Z,3.17
2017-04-16T06:00:06.788Z,3.00
2017-04-16T06:01:05.718Z,4.30
2017-04-16T06:02:04.611Z,2.30
2017-04-16T06:03:03.571Z,2.83
2017-04-16T06:04:02.495Z,2.58
2017-04-16T06:05:01.402Z,3.07
2017-04-16T06:05:59.553Z,3.68
2017-04-16T06:06:58.443Z,3.97
2017-04-16T06:07:57.359Z,3.42
2017-04-16T06:08:56.318Z,3.43
2017-04-16T06:09:55.212Z,3.18
2017-04-16T06:10:54.167Z,2.90
2017-04-16T06:11:53.153Z,2.95
2017-04-16T06:12:52.063Z,2.67
2017-04-16T06:13:50.968Z,3.85
2017-04-16T06:14:49.895Z,2.13
2017-04-16T06:15:48.814Z,2.10
2017-04-16T06:16:47.716Z,2.80
2017-04-16T06:17:46.621Z,2.38
2017-04-16T06:18:46.261Z,2.28
2017-04-16T06:19:45.168Z,2.80
2017-04-16T06:20:44.107Z,3.00
2017-04-16T06:21:43.025Z,3.73
2017-04-16T06:22:41.912Z,3.80
2017-04-16T06:23:40.812Z,4.30
2017-04-16T06:24:39.703Z,2.98
2017-04-16T06:25:39.384Z,4.03
2017-04-16T06:26:38.317Z,2.35
2017-04-16T06:27:37.215Z,5.38
2017-04-16T06:28:36.120Z,2.47
2017-04-16T06:29:35.024Z,2.70
2017-04-16T06:30:33.943Z,2.92
2017-04-16T06:31:32.879Z,2.87
2017-04-16T06:32:31.828Z,3.32
2017-04-16T06:33:30.725Z,3.13
2017-04-16T06:34:29.646Z,4.77
2017-04-16T06:35:28.542Z,3.53
2017-04-16T06:36:27.454Z,5.03
2017-04-16T06:37:26.392Z,3.40
2017-04-16T06:38:25.419Z,3.53
2017-04-16T06:39:24.316Z,4.30
2017-04-16T06:40:23.282Z,2.80
2017-04-16T06:41:22.189Z,3.93
2017-04-16T06:42:21.115Z,2.90
2017-04-16T06:43:20.033Z,2.60
2017-04-16T06:44:18.972Z,3.87
2017-04-16T06:45:17.889Z,5.57
2017-04-16T06:46:16.788Z,2.43
2017-04-16T06:47:15.680Z,2.00
2017-04-16T06:48:15.352Z,3.50
2017-04-16T06:49:14.255Z,3.22
2017-04-16T06:50:13.183Z,1.65
2017-04-16T06:51:12.075Z,3.02
2017-04-16T06:52:10.983Z,1.93
2017-04-16T06:53:09.897Z,3.25
2017-04-16T06:54:09.523Z,4.05
2017-04-16T06:55:08.421Z,3.90
2017-04-16T06:56:07.394Z,2.38
2017-04-16T06:57:06.319Z,2.47
2017-04-16T06:58:05.224Z,2.83
2017-04-16T06:59:04.196Z,2.60
2017-04-16T07:00:03.951Z,2.68
2017-04-16T07:01:02.852Z,3.10
2017-04-16T07:02:01.918Z,1.62
2017-04-16T07:03:00.813Z,2.07
2017-04-16T07:04:00.371Z,2.35
2017-04-16T07:05:00.063Z,2.02
2017-04-16T07:05:58.956Z,3.25
2017-04-16T07:06:57.866Z,2.77
2017-04-16T07:07:57.327Z,2.50
2017-04-16T07:08:56.256Z,2.72
2017-04-16T07:09:55.168Z,2.50
2017-04-16T07:10:54.071Z,3.37
2017-04-16T07:11:53.027Z,3.53
2017-04-16T07:12:51.932Z,2.80
2017-04-16T07:13:50.881Z,3.40
2017-04-16T07:14:50.615Z,3.40
2017-04-16T07:15:49.519Z,1.80
2017-04-16T07:16:48.479Z,2.90
2017-04-16T07:17:47.383Z,1.72
2017-04-16T07:18:46.378Z,3.13
2017-04-16T07:19:46.096Z,3.40
2017-04-16T07:20:45.771Z,2.97
2017-04-16T07:21:44.727Z,3.48
2017-04-16T07:22:43.640Z,1.58
2017-04-16T07:23:42.573Z,2.52
2017-04-16T07:24:41.504Z,3.57
2017-04-16T07:25:40.428Z,2.23
2017-04-16T07:26:39.323Z,1.50
2017-04-16T07:27:38.230Z,1.90
2017-04-16T07:28:37.174Z,3.37
2017-04-16T07:29:36.072Z,2.75
2017-04-16T07:30:35.012Z,3.60
2017-04-16T07:31:34.010Z,3.80
2017-04-16T07:32:32.899Z,1.87
2017-04-16T07:33:31.795Z,1.75
2017-04-16T07:34:30.728Z,2.07
2017-04-16T07:35:29.675Z,2.97
2017-04-16T07:36:28.588Z,2.08
2017-04-16T07:37:27.537Z,4.93
2017-04-16T07:38:26.474Z,2.00
2017-04-16T07:39:25.353Z,3.05
2017-04-16T07:40:24.251Z,3.97
2017-04-16T07:41:23.152Z,2.63
2017-04-16T07:42:22.099Z,3.10
2017-04-16T07:43:21.027Z,2.55
2017-04-16T07:44:19.927Z,2.00
2017-04-16T07:45:18.833Z,1.60
2017-04-16T07:46:17.749Z,2.87
2017-04-16T07:47:16.652Z,2.23
2017-04-16T07:48:15.547Z,2.40
2017-04-16T07:49:14.475Z,1.90
2017-04-16T07:50:13.387Z,2.23
2017-04-16T07:51:12.300Z,1.98
2017-04-16T07:52:11.184Z,2.38
2017-04-16T07:53:10.070Z,1.93
2017-04-16T07:54:09.705Z,1.70
2017-04-16T07:55:08.710Z,1.50
2017-04-16T07:56:07.783Z,1.78
2017-04-16T07:57:06.667Z,1.33
2017-04-16T07:58:05.607Z,2.22
2017-04-16T07:59:04.546Z,2.23
2017-04-16T08:00:03.471Z,2.03
2017-04-16T08:01:02.407Z,1.80
2017-04-16T08:02:01.299Z,1.40
2017-04-16T08:03:00.215Z,2.00
2017-04-16T08:03:59.115Z,1.37
2017-04-16T08:04:57.999Z,1.42
2017-04-16T08:05:56.907Z,2.32
2017-04-16T08:06:55.844Z,1.47
2017-04-16T08:07:54.743Z,1.40
2017-04-16T08:08:53.650Z,1.50
2017-04-16T08:09:52.553Z,1.55
2017-04-16T08:10:51.451Z,3.00
2017-04-16T08:11:51.088Z,4.15
2017-04-16T08:12:50.021Z,2.42
2017-04-16T08:13:49.656Z,2.32
2017-04-16T08:14:48.535Z,2.75
2017-04-16T08:15:47.451Z,3.47
2017-04-16T08:16:46.340Z,2.82
2017-04-16T08:17:45.234Z,2.23
2017-04-16T08:18:44.145Z,3.37
2017-04-16T08:19:43.155Z,2.20
2017-04-16T08:20:42.095Z,2.20
2017-04-16T08:21:41.024Z,2.02
2017-04-16T08:22:39.956Z,2.32
2017-04-16T08:23:39.604Z,2.40
2017-04-16T08:24:38.552Z,2.00
2017-04-16T08:25:37.455Z,1.68
2017-04-16T08:26:36.355Z,3.78
2017-04-16T08:27:35.271Z,2.10
2017-04-16T08:28:34.923Z,2.07
2017-04-16T08:29:33.917Z,1.60
2017-04-16T08:30:32.860Z,1.65
2017-04-16T08:31:31.797Z,2.12
2017-04-16T08:32:30.883Z,2.17
2017-04-16T08:33:29.809Z,3.00
2017-04-16T08:34:28.789Z,1.40
2017-04-16T08:35:27.738Z,1.72
2017-04-16T08:36:26.706Z,2.10
2017-04-16T08:37:25.597Z,1.63
2017-04-16T08:38:24.547Z,1.72
2017-04-16T08:39:23.485Z,1.88
2017-04-16T08:40:22.394Z,2.17
2017-04-16T08:41:21.287Z,1.75
2017-04-16T08:42:20.210Z,1.97
2017-04-16T08:43:19.855Z,2.65
2017-04-16T08:44:18.735Z,2.77
2017-04-16T08:45:17.623Z,1.70
2017-04-16T08:46:16.540Z,2.03
2017-04-16T08:47:15.451Z,1.97
2017-04-16T08:48:14.371Z,1.92
2017-04-16T08:49:13.295Z,1.80
2017-04-16T08:50:12.951Z,2.23
2017-04-16T08:51:11.866Z,2.03
2017-04-16T08:52:10.814Z,2.40
2017-04-16T08:53:09.737Z,2.00
2017-04-16T08:54:09.422Z,2.93
2017-04-16T08:55:08.308Z,2.22
2017-04-16T08:56:07.939Z,2.30
2017-04-16T08:57:06.835Z,2.22
2017-04-16T08:58:05.724Z,2.18
2017-04-16T08:59:04.636Z,2.10
2017-04-16T09:00:03.565Z,2.55
2017-04-16T09:01:02.467Z,3.07
2017-04-16T09:02:01.499Z,2.48
2017-04-16T09:03:00.395Z,2.10
2017-04-16T09:03:59.470Z,2.30
2017-04-16T09:04:59.102Z,3.88
2017-04-16T09:05:58.109Z,2.27
2017-04-16T09:06:57.004Z,2.70
2017-04-16T09:07:55.977Z,2.15
2017-04-16T09:08:54.893Z,2.82
2017-04-16T09:09:54.526Z,2.58
2017-04-16T09:10:53.501Z,2.08
2017-04-16T09:11:52.431Z,2.37
2017-04-16T09:12:51.385Z,2.44
2017-04-16T09:13:50.295Z,2.48
2017-04-16T09:14:49.180Z,3.05
2017-04-16T09:15:48.075Z,2.47
2017-04-16T09:16:47.713Z,2.37
2017-04-16T09:17:46.765Z,2.23
2017-04-16T09:18:46.396Z,2.25
2017-04-16T09:19:45.288Z,2.70
2017-04-16T09:20:44.201Z,2.52
2017-04-16T09:21:43.127Z,2.47
2017-04-16T09:22:42.061Z,2.43
2017-04-16T09:23:41.009Z,2.80
2017-04-16T09:24:39.900Z,2.40
2017-04-16T09:25:38.832Z,2.53
2017-04-16T09:26:37.739Z,2.47
2017-04-16T09:27:36.644Z,3.03
2017-04-16T09:28:35.600Z,2.50
2017-04-16T09:29:34.554Z,2.70
2017-04-16T09:30:33.471Z,2.68
2017-04-16T09:31:32.374Z,2.85
2017-04-16T09:32:31.293Z,2.97
2017-04-16T09:33:30.935Z,2.88
2017-04-16T09:34:29.831Z,3.38
2017-04-16T09:35:28.740Z,2.78
2017-04-16T09:36:27.672Z,3.62
2017-04-16T09:37:26.620Z,3.27
2017-04-16T09:38:26.265Z,3.08
2017-04-16T09:39:25.156Z,2.72
2017-04-16T09:40:24.080Z,2.98
2017-04-16T09:41:23.759Z,3.05
2017-04-16T09:42:22.683Z,2.67
2017-04-16T09:43:21.607Z,2.73
2017-04-16T09:44:20.537Z,2.70
2017-04-16T09:45:19.442Z,2.52
2017-04-16T09:46:18.395Z,2.85
2017-04-16T09:47:17.309Z,2.63
2017-04-16T09:48:16.279Z,2.50
2017-04-16T09:49:15.189Z,4.00
2017-04-16T09:50:14.160Z,3.18
2017-04-16T09:51:13.085Z,2.70
2017-04-16T09:52:12.008Z,2.75
2017-04-16T09:53:11.119Z,2.30
2017-04-16T09:54:10.020Z,2.53
2017-04-16T09:55:08.912Z,3.02
2017-04-16T09:56:07.803Z,2.68
2017-04-16T09:57:06.699Z,2.60
2017-04-16T09:58:05.601Z,3.07
2017-04-16T09:59:06.379Z,2.67
2017-04-16T10:00:06.025Z,2.80
2017-04-16T10:01:04.916Z,2.53
2017-04-16T10:02:03.818Z,2.67
2017-04-16T10:03:02.754Z,3.10
2017-04-16T10:04:01.652Z,2.72
2017-04-16T10:05:00.557Z,2.70
2017-04-16T10:05:59.447Z,2.70
2017-04-16T10:06:58.363Z,2.60
2017-04-16T10:07:57.273Z,2.77
2017-04-16T10:08:56.202Z,2.82
2017-04-16T10:09:55.872Z,2.83
2017-04-16T10:10:54.829Z,2.68
2017-04-16T10:11:53.705Z,3.17
2017-04-16T10:12:52.601Z,3.27
2017-04-16T10:13:51.544Z,2.97
2017-04-16T10:14:50.913Z,3.00
2017-04-16T10:15:50.807Z,2.82
2017-04-16T10:16:49.785Z,3.35
2017-04-16T10:17:48.716Z,3.40
2017-04-16T10:18:47.668Z,2.70
2017-04-16T10:19:47.338Z,2.80
2017-04-16T10:20:46.270Z,2.58
2017-04-16T10:21:45.294Z,3.10
2017-04-16T10:22:44.252Z,2.82
2017-04-16T10:23:43.236Z,3.15
2017-04-16T10:24:42.194Z,3.08
2017-04-16T10:25:41.219Z,2.40
2017-04-16T10:26:40.137Z,3.32
2017-04-16T10:27:39.053Z,2.78
2017-04-16T10:28:38.384Z,2.72
2017-04-16T10:29:37.307Z,2.68
2017-04-16T10:30:36.211Z,2.68
2017-04-16T10:31:35.135Z,2.70
2017-04-16T10:32:34.049Z,2.50
2017-04-16T10:33:33.007Z,2.78
2017-04-16T10:34:31.919Z,2.83
2017-04-16T10:35:30.844Z,2.72
2017-04-16T10:36:30.532Z,3.00
2017-04-16T10:37:29.447Z,3.20
2017-04-16T10:38:28.364Z,2.87
2017-04-16T10:39:27.263Z,3.28
2017-04-16T10:40:26.227Z,3.35
2017-04-16T10:41:25.177Z,2.90
2017-04-16T10:42:24.119Z,2.90
2017-04-16T10:43:23.043Z,3.67
2017-04-16T10:44:22.747Z,2.97
2017-04-16T10:45:22.415Z,2.57
2017-04-16T10:46:21.495Z,3.05
2017-04-16T10:47:20.573Z,2.70
2017-04-16T10:48:19.521Z,3.07
2017-04-16T10:49:18.427Z,2.58
2017-04-16T10:50:17.343Z,2.47
2017-04-16T10:51:16.993Z,2.18
2017-04-16T10:52:16.239Z,2.40
2017-04-16T10:53:15.286Z,2.50
2017-04-16T10:54:14.195Z,2.20
2017-04-16T10:55:13.091Z,2.30
2017-04-16T10:56:12.059Z,2.40
2017-04-16T10:57:10.975Z,2.50
2017-04-16T10:58:10.028Z,2.80
2017-04-16T10:59:08.925Z,2.45
2017-04-16T11:00:07.967Z,3.13
2017-04-16T11:01:06.882Z,2.67
2017-04-16T11:02:06.656Z,2.57
2017-04-16T11:03:06.008Z,3.27
2017-04-16T11:04:04.976Z,2.50
2017-04-16T11:05:03.949Z,2.40
2017-04-16T11:06:02.932Z,2.72
2017-04-16T11:07:01.848Z,2.70
2017-04-16T11:08:00.769Z,2.08
2017-04-16T11:08:59.670Z,2.63
2017-04-16T11:09:58.670Z,2.60
2017-04-16T11:10:57.579Z,2.40
2017-04-16T11:11:56.478Z,2.03
2017-04-16T11:12:55.367Z,2.45
2017-04-16T11:13:54.259Z,2.28
2017-04-16T11:14:53.911Z,2.42
2017-04-16T11:15:52.880Z,2.62
2017-04-16T11:16:51.796Z,2.20
2017-04-16T11:17:50.760Z,2.30
2017-04-16T11:18:49.696Z,2.20
2017-04-16T11:19:48.680Z,2.05
2017-04-16T11:20:48.347Z,1.78
2017-04-16T11:21:47.339Z,2.13
2017-04-16T11:22:46.238Z,1.70
2017-04-16T11:23:45.955Z,1.67
2017-04-16T11:24:45.094Z,1.50
2017-04-16T11:25:44.009Z,1.50
2017-04-16T11:26:42.932Z,1.50
2017-04-16T11:27:41.938Z,2.02
2017-04-16T11:28:40.837Z,1.73
2017-04-16T11:29:39.775Z,1.30
2017-04-16T11:30:38.739Z,1.70
2017-04-16T11:31:37.675Z,1.70
2017-04-16T11:32:36.579Z,1.70
2017-04-16T11:33:36.320Z,1.48
2017-04-16T11:34:35.284Z,1.30
2017-04-16T11:35:34.207Z,1.50
2017-04-16T11:36:33.164Z,1.62
2017-04-16T11:37:32.081Z,1.70
2017-04-16T11:38:31.572Z,1.50
2017-04-16T11:39:30.863Z,1.57
2017-04-16T11:40:29.766Z,1.67
2017-04-16T11:41:29.452Z,2.05
2017-04-16T11:42:28.342Z,1.70
2017-04-16T11:43:27.266Z,1.80
2017-04-16T11:44:26.175Z,2.63
2017-04-16T11:45:25.118Z,2.20
2017-04-16T11:46:24.044Z,2.70
2017-04-16T11:47:23.024Z,2.62
2017-04-16T11:48:22.275Z,2.65
2017-04-16T11:49:21.169Z,2.37
2017-04-16T11:50:20.096Z,2.53
2017-04-16T11:51:19.052Z,2.82
2017-04-16T11:52:17.959Z,2.55
2017-04-16T11:53:17.616Z,2.03
2017-04-16T11:54:16.539Z,2.03
2017-04-16T11:55:15.481Z,2.12
2017-04-16T11:56:14.419Z,1.58
2017-04-16T11:57:13.435Z,1.50
2017-04-16T11:58:12.368Z,1.74
2017-04-16T11:59:11.317Z,1.83
2017-04-16T12:00:10.315Z,1.53
2017-04-16T12:01:09.213Z,1.98
2017-04-16T12:02:08.889Z,1.75
2017-04-16T12:03:07.811Z,1.55
2017-04-16T12:04:06.723Z,1.57
2017-04-16T12:05:05.636Z,1.60
2017-04-16T12:06:04.557Z,2.45
2017-04-16T12:07:03.506Z,1.57
2017-04-16T12:08:02.447Z,1.93
2017-04-16T12:09:01.403Z,1.95
2017-04-16T12:10:00.315Z,1.30
2017-04-16T12:10:59.236Z,2.28
2017-04-16T12:11:58.175Z,1.47
2017-04-16T12:12:57.159Z,2.90
2017-04-16T12:13:56.161Z,1.50
2017-04-16T12:14:55.103Z,2.20
2017-04-16T12:15:54.040Z,2.02
2017-04-16T12:16:52.966Z,2.30
2017-04-16T12:17:51.951Z,1.52
2017-04-16T12:18:50.911Z,1.90
2017-04-16T12:19:49.825Z,1.60
2017-04-16T12:20:48.775Z,1.80
2017-04-16T12:21:47.681Z,1.40
2017-04-16T12:22:46.685Z,1.50
2017-04-16T12:23:45.608Z,1.65
2017-04-16T12:24:44.535Z,1.40
2017-04-16T12:25:43.467Z,1.90
2017-04-16T12:26:42.463Z,1.50
2017-04-16T12:27:41.356Z,1.65
2017-04-16T12:28:40.458Z,1.67
2017-04-16T12:29:39.367Z,1.60
2017-04-16T12:30:38.405Z,2.40
2017-04-16T12:31:37.431Z,1.60
2017-04-16T12:32:36.393Z,1.50
2017-04-16T12:33:35.312Z,2.40
2017-04-16T12:34:34.207Z,1.75
2017-04-16T12:35:33.104Z,2.45
2017-04-16T12:36:32.020Z,1.93
2017-04-16T12:37:31.018Z,1.30
2017-04-16T12:38:29.976Z,1.83
2017-04-16T12:39:28.887Z,1.67
2017-04-16T12:40:27.848Z,1.58
2017-04-16T12:41:26.757Z,2.40
2017-04-16T12:42:25.732Z,1.60
2017-04-16T12:43:24.680Z,2.80
2017-04-16T12:44:23.638Z,1.82
2017-04-16T12:45:22.575Z,1.80
2017-04-16T12:46:21.887Z,1.70
2017-04-16T12:47:21.523Z,1.68
2017-04-16T12:48:20.428Z,1.40
2017-04-16T12:49:19.335Z,1.73
2017-04-16T12:50:18.292Z,2.28
2017-04-16T12:51:17.215Z,1.85
2017-04-16T12:52:16.147Z,1.60
2017-04-16T12:53:15.058Z,1.80
2017-04-16T12:54:13.971Z,1.90
2017-04-16T12:55:12.883Z,1.85
2017-04-16T12:56:11.809Z,2.10
2017-04-16T12:57:10.734Z,1.98
2017-04-16T12:58:09.637Z,2.15
2017-04-16T12:59:08.537Z,1.80
2017-04-16T13:00:07.455Z,3.60
2017-04-16T13:01:06.360Z,2.32
2017-04-16T13:02:05.323Z,1.85
2017-04-16T13:03:04.281Z,1.73